Terminal Aerodrome Forecast
Issued by NWS Billings, MT

Home | Current Version | Previous Version | Text Only | Print | Product List | Glossary On
Versions: 1 2 3 4 5 6 7 8 9 10 11 12
000
FTUS45 KBYZ 170520
TAFMLS
TAF
KMLS 170520Z 1706/1806 23011KT P6SM VCSH BKN070 BKN100
     FM171000 25012KT P6SM FEW100 SCT200
     FM180000 23006KT P6SM FEW200=

USA.gov is the U.S. government's official web portal to all federal, state and local government web resources and services.